sensor_id;sensor_type;location;lat;lon;timestamp;P1;durP1;ratioP1;P2;durP2;ratioP2
20365;SDS011;10341;49.894;8.822;2023-04-03T00:01:47;5.75;;;2.70;;
20365;SDS011;10341;49.894;8.822;2023-04-03T00:07:06;8.27;;;3.00;;
20365;SDS011;10341;49.894;8.822;2023-04-03T00:12:25;6.15;;;3.38;;
20365;SDS011;10341;49.894;8.822;2023-04-03T00:17:45;5.15;;;2.90;;
20365;SDS011;10341;49.894;8.822;2023-04-03T00:23:04;6.35;;;3.00;;
20365;SDS011;10341;49.894;8.822;2023-04-03T00:28:24;3.25;;;2.67;;
20365;SDS011;10341;49.894;8.822;2023-04-03T00:33:44;4.55;;;3.20;;
20365;SDS011;10341;49.894;8.822;2023-04-03T00:39:03;4.68;;;2.88;;
20365;SDS011;10341;49.894;8.822;2023-04-03T00:49:52;4.57;;;2.90;;
20365;SDS011;10341;49.894;8.822;2023-04-03T00:55:11;5.65;;;2.88;;
20365;SDS011;10341;49.894;8.822;2023-04-03T01:00:33;4.35;;;2.70;;
20365;SDS011;10341;49.894;8.822;2023-04-03T01:05:54;4.65;;;2.90;;
20365;SDS011;10341;49.894;8.822;2023-04-03T01:16:33;3.93;;;2.80;;
20365;SDS011;10341;49.894;8.822;2023-04-03T01:22:02;4.25;;;2.47;;
20365;SDS011;10341;49.894;8.822;2023-04-03T01:27:43;3.72;;;2.50;;
20365;SDS011;10341;49.894;8.822;2023-04-03T01:33:03;5.18;;;2.90;;
20365;SDS011;10341;49.894;8.822;2023-04-03T01:38:24;4.85;;;2.78;;
20365;SDS011;10341;49.894;8.822;2023-04-03T01:43:44;4.07;;;2.70;;
20365;SDS011;10341;49.894;8.822;2023-04-03T01:54:23;4.82;;;2.50;;
20365;SDS011;10341;49.894;8.822;2023-04-03T01:59:43;3.78;;;2.47;;
20365;SDS011;10341;49.894;8.822;2023-04-03T02:10:22;4.40;;;2.75;;
20365;SDS011;10341;49.894;8.822;2023-04-03T02:15:41;3.30;;;2.70;;
20365;SDS011;10341;49.894;8.822;2023-04-03T02:26:20;4.72;;;2.72;;
20365;SDS011;10341;49.894;8.822;2023-04-03T02:36:59;4.35;;;2.67;;
20365;SDS011;10341;49.894;8.822;2023-04-03T02:42:19;4.38;;;2.42;;
20365;SDS011;10341;49.894;8.822;2023-04-03T02:47:38;3.35;;;2.47;;
20365;SDS011;10341;49.894;8.822;2023-04-03T02:58:17;3.38;;;2.47;;
20365;SDS011;10341;49.894;8.822;2023-04-03T03:03:37;5.10;;;2.60;;
20365;SDS011;10341;49.894;8.822;2023-04-03T03:08:56;4.15;;;2.80;;
20365;SDS011;10341;49.894;8.822;2023-04-03T03:14:16;5.47;;;2.58;;
20365;SDS011;10341;49.894;8.822;2023-04-03T03:19:35;5.32;;;2.97;;
20365;SDS011;10341;49.894;8.822;2023-04-03T03:24:55;4.78;;;2.70;;
20365;SDS011;10341;49.894;8.822;2023-04-03T03:30:14;3.72;;;2.65;;
20365;SDS011;10341;49.894;8.822;2023-04-03T03:40:55;5.85;;;2.00;;
20365;SDS011;10341;49.894;8.822;2023-04-03T03:46:16;3.17;;;2.20;;
20365;SDS011;10341;49.894;8.822;2023-04-03T03:51:36;4.65;;;2.28;;
20365;SDS011;10341;49.894;8.822;2023-04-03T03:56:59;4.15;;;2.28;;
20365;SDS011;10341;49.894;8.822;2023-04-03T04:02:18;4.57;;;2.40;;
20365;SDS011;10341;49.894;8.822;2023-04-03T04:07:38;4.28;;;2.42;;
20365;SDS011;10341;49.894;8.822;2023-04-03T04:12:58;2.90;;;2.05;;
20365;SDS011;10341;49.894;8.822;2023-04-03T04:18:20;4.45;;;2.30;;
20365;SDS011;10341;49.894;8.822;2023-04-03T04:23:41;4.22;;;1.90;;
20365;SDS011;10341;49.894;8.822;2023-04-03T04:29:01;2.42;;;2.22;;
20365;SDS011;10341;49.894;8.822;2023-04-03T04:34:24;3.83;;;2.25;;
20365;SDS011;10341;49.894;8.822;2023-04-03T04:45:03;5.88;;;2.45;;
20365;SDS011;10341;49.894;8.822;2023-04-03T04:50:22;6.57;;;2.20;;
20365;SDS011;10341;49.894;8.822;2023-04-03T04:55:42;6.20;;;2.05;;
20365;SDS011;10341;49.894;8.822;2023-04-03T05:01:03;4.80;;;1.85;;
20365;SDS011;10341;49.894;8.822;2023-04-03T05:06:26;5.65;;;1.70;;
20365;SDS011;10341;49.894;8.822;2023-04-03T05:11:47;5.57;;;2.00;;
20365;SDS011;10341;49.894;8.822;2023-04-03T05:17:09;6.95;;;2.20;;
20365;SDS011;10341;49.894;8.822;2023-04-03T05:22:32;3.33;;;1.80;;
20365;SDS011;10341;49.894;8.822;2023-04-03T05:27:57;4.45;;;1.92;;
20365;SDS011;10341;49.894;8.822;2023-04-03T05:33:17;4.38;;;1.73;;
20365;SDS011;10341;49.894;8.822;2023-04-03T05:38:41;4.05;;;1.85;;
20365;SDS011;10341;49.894;8.822;2023-04-03T05:44:00;7.50;;;2.20;;
20365;SDS011;10341;49.894;8.822;2023-04-03T05:49:20;6.53;;;1.83;;
20365;SDS011;10341;49.894;8.822;2023-04-03T05:54:40;3.38;;;1.40;;
20365;SDS011;10341;49.894;8.822;2023-04-03T06:00:07;3.70;;;1.55;;
20365;SDS011;10341;49.894;8.822;2023-04-03T06:05:38;3.30;;;1.80;;
20365;SDS011;10341;49.894;8.822;2023-04-03T06:10:58;4.50;;;1.80;;
20365;SDS011;10341;49.894;8.822;2023-04-03T06:16:17;3.08;;;1.70;;
20365;SDS011;10341;49.894;8.822;2023-04-03T06:21:38;7.07;;;1.80;;
20365;SDS011;10341;49.894;8.822;2023-04-03T06:26:57;4.50;;;1.83;;
20365;SDS011;10341;49.894;8.822;2023-04-03T06:32:17;3.65;;;1.83;;
20365;SDS011;10341;49.894;8.822;2023-04-03T06:37:36;5.55;;;2.33;;
20365;SDS011;10341;49.894;8.822;2023-04-03T06:42:56;4.68;;;1.98;;
20365;SDS011;10341;49.894;8.822;2023-04-03T06:48:16;4.45;;;1.67;;
20365;SDS011;10341;49.894;8.822;2023-04-03T06:53:35;2.75;;;1.60;;
20365;SDS011;10341;49.894;8.822;2023-04-03T06:58:55;6.30;;;2.03;;
20365;SDS011;10341;49.894;8.822;2023-04-03T07:04:16;4.25;;;1.60;;
20365;SDS011;10341;49.894;8.822;2023-04-03T07:09:36;3.88;;;1.50;;
20365;SDS011;10341;49.894;8.822;2023-04-03T07:14:55;3.38;;;1.92;;
20365;SDS011;10341;49.894;8.822;2023-04-03T07:20:14;5.07;;;1.63;;
20365;SDS011;10341;49.894;8.822;2023-04-03T07:25:33;3.28;;;1.25;;
20365;SDS011;10341;49.894;8.822;2023-04-03T07:31:00;3.22;;;1.40;;
20365;SDS011;10341;49.894;8.822;2023-04-03T07:36:26;4.22;;;1.20;;
20365;SDS011;10341;49.894;8.822;2023-04-03T07:47:06;4.35;;;1.20;;
20365;SDS011;10341;49.894;8.822;2023-04-03T07:52:25;2.17;;;1.20;;
20365;SDS011;10341;49.894;8.822;2023-04-03T07:57:45;3.40;;;1.50;;
20365;SDS011;10341;49.894;8.822;2023-04-03T08:03:05;3.33;;;1.20;;
20365;SDS011;10341;49.894;8.822;2023-04-03T08:08:25;6.07;;;1.35;;
20365;SDS011;10341;49.894;8.822;2023-04-03T08:13:44;3.27;;;1.27;;
20365;SDS011;10341;49.894;8.822;2023-04-03T08:19:04;3.58;;;1.15;;
20365;SDS011;10341;49.894;8.822;2023-04-03T08:24:25;2.72;;;1.13;;
20365;SDS011;10341;49.894;8.822;2023-04-03T08:29:45;3.58;;;1.05;;
20365;SDS011;10341;49.894;8.822;2023-04-03T08:35:04;1.95;;;0.98;;
20365;SDS011;10341;49.894;8.822;2023-04-03T08:40:24;1.83;;;1.13;;
20365;SDS011;10341;49.894;8.822;2023-04-03T08:51:10;2.58;;;1.30;;
20365;SDS011;10341;49.894;8.822;2023-04-03T08:56:35;2.42;;;1.20;;
20365;SDS011;10341;49.894;8.822;2023-04-03T09:01:55;1.77;;;1.30;;
20365;SDS011;10341;49.894;8.822;2023-04-03T09:07:20;3.17;;;1.35;;
20365;SDS011;10341;49.894;8.822;2023-04-03T09:12:59;1.30;;;0.90;;
20365;SDS011;10341;49.894;8.822;2023-04-03T09:18:30;2.35;;;1.00;;
20365;SDS011;10341;49.894;8.822;2023-04-03T09:23:56;3.85;;;1.20;;
20365;SDS011;10341;49.894;8.822;2023-04-03T09:29:19;2.00;;;0.98;;
20365;SDS011;10341;49.894;8.822;2023-04-03T09:34:40;2.10;;;1.10;;
20365;SDS011;10341;49.894;8.822;2023-04-03T09:40:02;2.70;;;1.30;;
20365;SDS011;10341;49.894;8.822;2023-04-03T09:45:33;2.78;;;1.30;;
20365;SDS011;10341;49.894;8.822;2023-04-03T09:50:56;1.27;;;1.10;;
20365;SDS011;10341;49.894;8.822;2023-04-03T09:56:29;2.58;;;1.33;;
20365;SDS011;10341;49.894;8.822;2023-04-03T10:02:00;3.05;;;1.10;;
20365;SDS011;10341;49.894;8.822;2023-04-03T10:07:34;3.53;;;1.10;;
20365;SDS011;10341;49.894;8.822;2023-04-03T10:13:15;1.80;;;1.13;;
20365;SDS011;10341;49.894;8.822;2023-04-03T10:18:45;2.13;;;1.17;;
20365;SDS011;10341;49.894;8.822;2023-04-03T10:30:06;2.88;;;1.30;;
20365;SDS011;10341;49.894;8.822;2023-04-03T10:35:57;3.60;;;1.40;;
20365;SDS011;10341;49.894;8.822;2023-04-03T10:52:47;2.80;;;1.35;;
20365;SDS011;10341;49.894;8.822;2023-04-03T10:58:29;3.40;;;1.30;;
20365;SDS011;10341;49.894;8.822;2023-04-03T11:03:54;1.77;;;1.20;;
20365;SDS011;10341;49.894;8.822;2023-04-03T11:14:45;3.45;;;1.30;;
20365;SDS011;10341;49.894;8.822;2023-04-03T11:20:13;2.65;;;1.05;;
20365;SDS011;10341;49.894;8.822;2023-04-03T11:25:38;3.35;;;1.35;;
20365;SDS011;10341;49.894;8.822;2023-04-03T11:36:50;2.25;;;1.05;;
20365;SDS011;10341;49.894;8.822;2023-04-03T11:42:25;1.88;;;1.05;;
20365;SDS011;10341;49.894;8.822;2023-04-03T11:47:55;2.92;;;1.30;;
20365;SDS011;10341;49.894;8.822;2023-04-03T11:58:35;3.65;;;1.50;;
20365;SDS011;10341;49.894;8.822;2023-04-03T12:03:56;1.67;;;1.05;;
20365;SDS011;10341;49.894;8.822;2023-04-03T12:14:42;2.50;;;1.33;;
20365;SDS011;10341;49.894;8.822;2023-04-03T12:20:11;2.20;;;1.13;;
20365;SDS011;10341;49.894;8.822;2023-04-03T12:26:05;2.47;;;1.13;;
20365;SDS011;10341;49.894;8.822;2023-04-03T12:31:56;1.67;;;1.20;;
20365;SDS011;10341;49.894;8.822;2023-04-03T12:43:17;3.47;;;1.52;;
20365;SDS011;10341;49.894;8.822;2023-04-03T12:48:52;2.05;;;1.20;;
20365;SDS011;10341;49.894;8.822;2023-04-03T12:54:16;1.38;;;0.90;;
20365;SDS011;10341;49.894;8.822;2023-04-03T12:59:45;1.83;;;1.07;;
20365;SDS011;10341;49.894;8.822;2023-04-03T13:05:07;2.80;;;1.10;;
20365;SDS011;10341;49.894;8.822;2023-04-03T13:10:28;1.20;;;0.95;;
20365;SDS011;10341;49.894;8.822;2023-04-03T13:15:49;2.17;;;1.15;;
20365;SDS011;10341;49.894;8.822;2023-04-03T13:21:20;2.75;;;1.20;;
20365;SDS011;10341;49.894;8.822;2023-04-03T13:26:41;1.83;;;1.10;;
20365;SDS011;10341;49.894;8.822;2023-04-03T13:32:03;2.10;;;1.10;;
20365;SDS011;10341;49.894;8.822;2023-04-03T13:37:25;2.28;;;1.23;;
20365;SDS011;10341;49.894;8.822;2023-04-03T13:42:48;1.48;;;1.08;;
20365;SDS011;10341;49.894;8.822;2023-04-03T13:48:19;2.03;;;1.08;;
20365;SDS011;10341;49.894;8.822;2023-04-03T13:53:49;2.08;;;1.15;;
20365;SDS011;10341;49.894;8.822;2023-04-03T14:04:43;4.10;;;1.10;;
20365;SDS011;10341;49.894;8.822;2023-04-03T14:10:07;2.42;;;1.08;;
20365;SDS011;10341;49.894;8.822;2023-04-03T14:20:47;2.33;;;1.10;;
20365;SDS011;10341;49.894;8.822;2023-04-03T14:26:09;2.95;;;1.48;;
20365;SDS011;10341;49.894;8.822;2023-04-03T14:31:35;1.85;;;1.38;;
20365;SDS011;10341;49.894;8.822;2023-04-03T14:36:54;1.80;;;1.30;;
20365;SDS011;10341;49.894;8.822;2023-04-03T14:42:19;3.13;;;1.40;;
20365;SDS011;10341;49.894;8.822;2023-04-03T14:47:51;2.35;;;1.50;;
20365;SDS011;10341;49.894;8.822;2023-04-03T14:53:12;2.08;;;1.67;;
20365;SDS011;10341;49.894;8.822;2023-04-03T14:58:33;3.40;;;1.42;;
20365;SDS011;10341;49.894;8.822;2023-04-03T15:03:54;5.20;;;1.70;;
20365;SDS011;10341;49.894;8.822;2023-04-03T15:09:22;3.38;;;1.67;;
20365;SDS011;10341;49.894;8.822;2023-04-03T15:14:43;2.38;;;1.65;;
20365;SDS011;10341;49.894;8.822;2023-04-03T15:20:03;2.28;;;1.55;;
20365;SDS011;10341;49.894;8.822;2023-04-03T15:25:30;3.92;;;2.13;;
20365;SDS011;10341;49.894;8.822;2023-04-03T15:30:51;3.33;;;2.10;;
20365;SDS011;10341;49.894;8.822;2023-04-03T15:36:10;2.13;;;1.52;;
20365;SDS011;10341;49.894;8.822;2023-04-03T15:41:30;2.92;;;1.38;;
20365;SDS011;10341;49.894;8.822;2023-04-03T15:46:50;3.10;;;1.50;;
20365;SDS011;10341;49.894;8.822;2023-04-03T15:52:10;4.00;;;1.40;;
20365;SDS011;10341;49.894;8.822;2023-04-03T15:57:29;2.10;;;1.30;;
20365;SDS011;10341;49.894;8.822;2023-04-03T16:02:50;3.72;;;1.40;;
20365;SDS011;10341;49.894;8.822;2023-04-03T16:08:13;2.35;;;1.10;;
20365;SDS011;10341;49.894;8.822;2023-04-03T16:18:53;1.38;;;0.88;;
20365;SDS011;10341;49.894;8.822;2023-04-03T16:24:14;2.15;;;1.00;;
20365;SDS011;10341;49.894;8.822;2023-04-03T16:29:33;1.63;;;1.00;;
20365;SDS011;10341;49.894;8.822;2023-04-03T16:34:53;1.90;;;0.80;;
20365;SDS011;10341;49.894;8.822;2023-04-03T16:40:12;3.35;;;1.15;;
20365;SDS011;10341;49.894;8.822;2023-04-03T16:45:32;2.42;;;0.95;;
20365;SDS011;10341;49.894;8.822;2023-04-03T16:50:51;1.33;;;1.00;;
20365;SDS011;10341;49.894;8.822;2023-04-03T16:56:12;2.13;;;0.98;;
20365;SDS011;10341;49.894;8.822;2023-04-03T17:01:31;2.85;;;1.65;;
20365;SDS011;10341;49.894;8.822;2023-04-03T17:06:51;2.70;;;1.00;;
20365;SDS011;10341;49.894;8.822;2023-04-03T17:12:11;4.18;;;1.10;;
20365;SDS011;10341;49.894;8.822;2023-04-03T17:17:30;2.97;;;1.50;;
20365;SDS011;10341;49.894;8.822;2023-04-03T17:22:50;3.20;;;1.50;;
20365;SDS011;10341;49.894;8.822;2023-04-03T17:28:10;2.22;;;1.33;;
20365;SDS011;10341;49.894;8.822;2023-04-03T17:33:30;3.97;;;1.17;;
20365;SDS011;10341;49.894;8.822;2023-04-03T17:38:50;2.13;;;1.48;;
20365;SDS011;10341;49.894;8.822;2023-04-03T17:44:09;3.17;;;1.48;;
20365;SDS011;10341;49.894;8.822;2023-04-03T17:49:29;4.93;;;2.08;;
20365;SDS011;10341;49.894;8.822;2023-04-03T17:54:49;2.35;;;1.67;;
20365;SDS011;10341;49.894;8.822;2023-04-03T18:00:09;3.47;;;1.70;;
20365;SDS011;10341;49.894;8.822;2023-04-03T18:05:32;4.78;;;1.55;;
20365;SDS011;10341;49.894;8.822;2023-04-03T18:10:51;3.70;;;1.75;;
20365;SDS011;10341;49.894;8.822;2023-04-03T18:16:12;3.92;;;2.00;;
20365;SDS011;10341;49.894;8.822;2023-04-03T18:21:33;3.97;;;1.40;;
20365;SDS011;10341;49.894;8.822;2023-04-03T18:26:57;3.50;;;1.88;;
20365;SDS011;10341;49.894;8.822;2023-04-03T18:32:24;5.97;;;2.00;;
20365;SDS011;10341;49.894;8.822;2023-04-03T18:37:43;2.05;;;1.50;;
20365;SDS011;10341;49.894;8.822;2023-04-03T18:43:02;2.30;;;1.67;;
20365;SDS011;10341;49.894;8.822;2023-04-03T18:48:22;2.67;;;1.80;;
20365;SDS011;10341;49.894;8.822;2023-04-03T18:53:42;2.45;;;1.52;;
20365;SDS011;10341;49.894;8.822;2023-04-03T18:59:02;4.90;;;2.05;;
20365;SDS011;10341;49.894;8.822;2023-04-03T19:09:41;4.53;;;1.75;;
20365;SDS011;10341;49.894;8.822;2023-04-03T19:15:01;5.28;;;1.90;;
20365;SDS011;10341;49.894;8.822;2023-04-03T19:20:20;3.17;;;1.85;;
20365;SDS011;10341;49.894;8.822;2023-04-03T19:31:00;2.67;;;1.60;;
20365;SDS011;10341;49.894;8.822;2023-04-03T19:36:19;7.90;;;2.47;;
20365;SDS011;10341;49.894;8.822;2023-04-03T19:41:39;5.57;;;2.20;;
20365;SDS011;10341;49.894;8.822;2023-04-03T19:47:00;5.35;;;2.85;;
20365;SDS011;10341;49.894;8.822;2023-04-03T19:52:20;4.25;;;2.20;;
20365;SDS011;10341;49.894;8.822;2023-04-03T19:57:40;6.95;;;2.38;;
20365;SDS011;10341;49.894;8.822;2023-04-03T20:02:59;3.80;;;1.70;;
20365;SDS011;10341;49.894;8.822;2023-04-03T20:08:19;3.45;;;1.67;;
20365;SDS011;10341;49.894;8.822;2023-04-03T20:18:58;5.47;;;2.10;;
20365;SDS011;10341;49.894;8.822;2023-04-03T20:24:17;3.03;;;1.80;;
20365;SDS011;10341;49.894;8.822;2023-04-03T20:29:37;3.55;;;1.70;;
20365;SDS011;10341;49.894;8.822;2023-04-03T20:34:57;3.45;;;2.13;;
20365;SDS011;10341;49.894;8.822;2023-04-03T20:40:17;2.72;;;2.03;;
20365;SDS011;10341;49.894;8.822;2023-04-03T20:45:36;3.65;;;2.10;;
20365;SDS011;10341;49.894;8.822;2023-04-03T20:50:56;2.65;;;1.70;;
20365;SDS011;10341;49.894;8.822;2023-04-03T20:56:16;2.00;;;1.40;;
20365;SDS011;10341;49.894;8.822;2023-04-03T21:01:36;3.58;;;1.65;;
20365;SDS011;10341;49.894;8.822;2023-04-03T21:24:34;5.10;;;1.90;;
20365;SDS011;10341;49.894;8.822;2023-04-03T21:29:54;3.70;;;1.90;;
20365;SDS011;10341;49.894;8.822;2023-04-03T21:35:14;4.88;;;1.98;;
20365;SDS011;10341;49.894;8.822;2023-04-03T21:40:33;4.15;;;1.95;;
20365;SDS011;10341;49.894;8.822;2023-04-03T21:51:13;2.95;;;1.63;;
20365;SDS011;10341;49.894;8.822;2023-04-03T21:56:34;4.45;;;1.80;;
20365;SDS011;10341;49.894;8.822;2023-04-03T22:01:53;3.85;;;1.98;;
20365;SDS011;10341;49.894;8.822;2023-04-03T22:07:13;5.55;;;2.35;;
20365;SDS011;10341;49.894;8.822;2023-04-03T22:17:52;3.45;;;2.10;;
20365;SDS011;10341;49.894;8.822;2023-04-03T22:23:11;2.85;;;1.90;;
20365;SDS011;10341;49.894;8.822;2023-04-03T22:33:52;5.60;;;2.00;;
20365;SDS011;10341;49.894;8.822;2023-04-03T22:39:13;3.13;;;1.90;;
20365;SDS011;10341;49.894;8.822;2023-04-03T22:44:34;2.90;;;2.10;;
20365;SDS011;10341;49.894;8.822;2023-04-03T22:49:53;5.22;;;2.15;;
20365;SDS011;10341;49.894;8.822;2023-04-03T23:00:32;5.03;;;1.95;;
20365;SDS011;10341;49.894;8.822;2023-04-03T23:11:11;3.95;;;2.20;;
20365;SDS011;10341;49.894;8.822;2023-04-03T23:16:30;3.20;;;1.98;;
20365;SDS011;10341;49.894;8.822;2023-04-03T23:21:50;6.80;;;2.28;;
20365;SDS011;10341;49.894;8.822;2023-04-03T23:32:29;4.72;;;2.25;;
20365;SDS011;10341;49.894;8.822;2023-04-03T23:43:08;4.00;;;2.03;;
20365;SDS011;10341;49.894;8.822;2023-04-03T23:48:28;4.20;;;2.08;;
20365;SDS011;10341;49.894;8.822;2023-04-03T23:53:47;2.88;;;1.88;;
20365;SDS011;10341;49.894;8.822;2023-04-03T23:59:07;3.35;;;2.25;;
